Pagrindinis puslapis
METAR-TAF:

METAR-TAF

Oro uostai :

Marham, Anglija

platuma: 52-39N, ilguma: 000-34E, Aukštis: 23 m

Dabartinis oras

Ataskaita buvo paskelbta 50 minutes, ne 19:50 UTC
Vėjas 4 kt iš Vakarų
Temperatūra 0°C
Drėgmė 100%
Slėgis 996 hPa
Matomumas 10 km arba daugiau

METAR: EGYM 231950Z AUTO 28004KT 9999 BKN015/// 00/M00 Q0996

Laikas: 20:40 (20:40 UTC)


TAF: trūkstamas

Orai ataskaitas ir orų prognozės (METAR, TAF).

turimą stotys yra geltonos ir raudonos taškus žemėlapyje.

Perkelti pele per norėdami pamatyti stoties vardą.

Tada spustelėkite, norėdami matyti oro stebėjimo ir prognozės.

Norėdami pakeisti žemėlapį: spustelėkite ant žalios mygtukų su juodo kryžiaus žemyn,; žalią mygtuką su brūkšneliu, jei norite nutolinti; arba žalių rodyklių gretimoms žemėlapius.


METAR-TAF: